Terminal Aerodrome Forecast
Issued by NWS

Home | Current Version | Previous Version | Text Only | Print | Product List | Glossary On
Versions: 1 2 3 4 5 6 7 8 9 10 11 12 13 14 15 16
000
FTAK31 PAJN 041100
TAFASI
TAF
PASI 041137Z 0412/0512 VRB04KT P6SM VCSH BKN007 BKN030 OVC100
     FM041600 VRB04KT P6SM -RA BKN010 OVC030
     FM041800 13007KT 6SM -RA BR BKN025 OVC040
     FM050600 VRB05KT 6SM -RA BR BKN010 OVC020=

USA.gov is the U.S. government's official web portal to all federal, state and local government web resources and services.